CYQM

Greater Moncton International Airport

Moncton, New Brunswick, Canada
METAR CYQM 172000Z 27013G19KT 15SM SKC M09/M18 A3000 RMK SLP166
Observed Flight Rules
Dec-17 @ 20:00 UTC (an hour ago) Visual Flight Rules
Wind Visibility Clouds
270° at 13 knots
 Gusting to 19 knots
15 miles
  • Clear skies
Temperatures Readings
Current -9°C / 16°F
Dewpoint -18°C / -0°F
Humidity 48%
Altimeter 30" Hg
Pressure 1016.6 hPa
Elevation 71
METAR CYQM 172000Z 27013G19KT 15SM SKC M09/M18 A3000 RMK SLP166
Observed Flight Rules
Dec-17 @ 20:00 UTC
(an hour ago)
VFR
Wind Visibility
270° at 13 knots
 Gusting to 19 knots
15 miles
Clouds
  • Clear skies
Temperature Dewpoint
-9°C / 16°F -18°C / -0°F
Humidity Altimeter Pressure
48% 30" Hg 1016.6 hPa